Time;durP1;ratioP1;P1;durP2;ratioP2;P2;SDS_P1;SDS_P2;PMS_P1;PMS_P2;Temp;Humidity;BMP_temperature;BMP_pressure;BME280_temperature;BME280_humidity;BME280_pressure;Samples;Min_cycle;Max_cycle;Signal;HPM_P1;HPM_P2
2022/12/20 00:03:03;;;;;;;34.57;27.53;;;;;6.90;99512.00;;;;16650249;28;20569;-79
2022/12/20 00:11:07;;;;;;;43.03;29.60;;;;;6.40;99519.00;;;;16621431;28;20275;-79
2022/12/20 00:19:12;;;;;;;40.30;28.33;;;;;6.40;99504.00;;;;16596996;28;20264;-79
2022/12/20 00:27:14;;;;;;;37.13;27.07;;;;;6.50;99487.00;;;;16620000;28;20217;-79
2022/12/20 00:35:18;;;;;;;41.60;30.23;;;;;6.60;99481.00;;;;16625823;28;20286;-80
2022/12/20 00:43:21;;;;;;;39.47;27.50;;;;;7.10;99480.00;;;;16632582;28;20231;-79
2022/12/20 00:51:27;;;;;;;42.53;27.63;;;;;6.40;99494.00;;;;16632074;28;20286;-79
2022/12/20 00:59:29;;;;;;;35.63;27.80;;;;;6.70;99493.00;;;;16632201;28;20284;-80
2022/12/20 01:07:33;;;;;;;35.20;24.70;;;;;6.90;99479.00;;;;16587709;28;20306;-80
2022/12/20 01:15:36;;;;;;;35.97;25.67;;;;;7.00;99488.00;;;;16622485;28;20284;-80
2022/12/20 01:23:40;;;;;;;37.67;28.30;;;;;6.50;99506.00;;;;16613662;28;20278;-78
2022/12/20 01:31:43;;;;;;;35.03;26.87;;;;;6.30;99505.00;;;;16618683;28;20255;-78
2022/12/20 01:39:47;;;;;;;33.60;25.33;;;;;6.80;99494.00;;;;16592781;28;20199;-80
2022/12/20 01:47:49;;;;;;;36.60;25.80;;;;;6.90;99478.00;;;;16616721;28;20561;-79
2022/12/20 01:55:54;;;;;;;34.37;26.07;;;;;7.10;99473.00;;;;16615060;28;20931;-79
2022/12/20 02:03:58;;;;;;;39.77;26.47;;;;;7.10;99458.00;;;;16576587;28;20596;-78
2022/12/20 02:12:09;;;;;;;36.07;26.90;;;;;6.40;99463.00;;;;16609490;28;20284;-78
2022/12/20 02:20:43;;;;;;;33.57;27.50;;;;;6.50;99450.00;;;;16615025;28;21405;-78
2022/12/20 02:29:03;;;;;;;37.10;26.30;;;;;6.40;99440.00;;;;16612272;28;20217;-78
2022/12/20 02:37:06;;;;;;;36.60;27.40;;;;;6.90;99417.00;;;;16631775;28;20256;-79
2022/12/20 02:45:16;;;;;;;31.10;25.03;;;;;6.90;99431.00;;;;16630994;28;20228;-79
2022/12/20 02:53:21;;;;;;;36.77;27.10;;;;;6.80;99423.00;;;;16621804;28;20244;-79
2022/12/20 03:01:27;;;;;;;34.33;24.97;;;;;6.40;99410.00;;;;16616597;28;20683;-79
2022/12/20 03:09:31;;;;;;;42.17;30.80;;;;;5.70;99404.00;;;;16649687;28;20274;-78
2022/12/20 03:17:34;;;;;;;38.40;29.23;;;;;5.60;99398.00;;;;16601952;28;20248;-79
2022/12/20 03:25:39;;;;;;;38.17;31.47;;;;;5.90;99384.00;;;;16616549;28;20228;-78
2022/12/20 03:33:42;;;;;;;40.23;28.27;;;;;6.10;99391.00;;;;16605045;28;20246;-79
2022/12/20 03:41:46;;;;;;;37.10;26.30;;;;;5.90;99379.00;;;;16613911;28;20256;-78
2022/12/20 03:49:52;;;;;;;36.83;28.30;;;;;5.80;99398.00;;;;16620470;28;20214;-79
2022/12/20 03:57:56;;;;;;;37.50;27.13;;;;;5.90;99370.00;;;;16606768;28;20215;-79
2022/12/20 04:06:07;;;;;;;36.27;27.00;;;;;6.10;99376.00;;;;16589148;28;20605;-79
2022/12/20 04:14:11;;;;;;;44.33;30.70;;;;;5.60;99365.00;;;;16594992;28;20283;-79
2022/12/20 04:22:14;;;;;;;35.17;27.40;;;;;5.90;99358.00;;;;16595446;28;20228;-79
2022/12/20 04:30:27;;;;;;;32.83;25.00;;;;;6.30;99346.00;;;;16606571;28;20737;-79
2022/12/20 04:38:30;;;;;;;37.40;25.37;;;;;6.40;99368.00;;;;16628749;28;20205;-79
2022/12/20 04:46:34;;;;;;;32.57;24.37;;;;;6.50;99335.00;;;;16607497;28;20260;-80
2022/12/20 04:54:38;;;;;;;30.47;22.47;;;;;6.30;99333.00;;;;16653238;28;20229;-78
2022/12/20 05:02:51;;;;;;;32.83;24.43;;;;;6.10;99327.00;;;;16632941;22;20236;-46
2022/12/20 05:10:56;;;;;;;32.80;23.20;;;;;6.50;99322.00;;;;16728057;28;20242;-45
2022/12/20 05:19:02;;;;;;;31.20;23.03;;;;;6.50;99305.00;;;;16751756;28;20725;-48
2022/12/20 05:27:08;;;;;;;28.93;24.10;;;;;6.30;99307.00;;;;16731961;28;20226;-56
2022/12/20 05:35:12;;;;;;;29.60;23.57;;;;;6.10;99304.00;;;;16692478;28;20231;-49
2022/12/20 05:43:15;;;;;;;33.60;26.30;;;;;5.90;99298.00;;;;16707033;28;20222;-46
2022/12/20 05:51:22;;;;;;;38.80;26.33;;;;;5.80;99284.00;;;;16675354;28;20232;-47
2022/12/20 05:59:31;;;;;;;34.43;25.63;;;;;5.80;99276.00;;;;16677379;28;20283;-47
2022/12/20 06:07:35;;;;;;;42.50;30.40;;;;;5.60;99271.00;;;;16690520;28;20204;-48
2022/12/20 06:15:38;;;;;;;43.13;33.23;;;;;5.60;99274.00;;;;16683882;28;20240;-46
2022/12/20 06:23:43;;;;;;;36.97;30.77;;;;;5.90;99285.00;;;;16702299;28;20256;-46
2022/12/20 06:31:48;;;;;;;37.80;29.47;;;;;6.10;99281.00;;;;16700202;28;20732;-47
2022/12/20 06:39:53;;;;;;;32.17;25.07;;;;;6.60;99281.00;;;;16698706;28;20688;-47
2022/12/20 06:47:58;;;;;;;29.43;24.57;;;;;6.60;99298.00;;;;16688748;28;20227;-47
2022/12/20 06:56:05;;;;;;;30.13;22.27;;;;;6.70;99295.00;;;;16690463;28;20578;-46
2022/12/20 07:04:08;;;;;;;28.83;22.67;;;;;7.00;99273.00;;;;16730204;28;20229;-47
2022/12/20 07:12:11;;;;;;;32.87;24.93;;;;;7.20;99268.00;;;;16748382;28;20236;-47
2022/12/20 07:20:15;;;;;;;25.57;21.33;;;;;7.50;99259.00;;;;16718136;28;20383;-47
2022/12/20 07:28:19;;;;;;;22.63;18.80;;;;;7.60;99266.00;;;;16749293;28;20219;-47
2022/12/20 07:36:21;;;;;;;21.27;17.37;;;;;7.80;99270.00;;;;16759600;28;20216;-47
2022/12/20 07:44:25;;;;;;;21.23;16.00;;;;;7.80;99257.00;;;;16742291;28;20725;-46
2022/12/20 07:52:29;;;;;;;29.10;21.10;;;;;7.30;99260.00;;;;16740487;28;20934;-47
2022/12/20 08:00:33;;;;;;;28.50;21.40;;;;;7.20;99268.00;;;;16729314;28;20935;-47
2022/12/20 08:08:38;;;;;;;25.80;21.30;;;;;6.90;99265.00;;;;16712464;28;20234;-47
2022/12/20 08:16:42;;;;;;;24.00;19.77;;;;;7.00;99265.00;;;;16707514;28;20712;-47
2022/12/20 08:24:44;;;;;;;23.57;20.90;;;;;7.10;99263.00;;;;16701591;28;20725;-47
2022/12/20 08:32:48;;;;;;;24.97;18.03;;;;;7.40;99258.00;;;;16702030;28;20229;-48
2022/12/20 08:40:51;;;;;;;24.33;17.17;;;;;7.70;99232.00;;;;16701373;28;20540;-47
2022/12/20 08:48:55;;;;;;;22.60;17.90;;;;;7.80;99229.00;;;;16704053;28;20224;-48
2022/12/20 08:56:57;;;;;;;25.10;18.70;;;;;7.80;99214.00;;;;16703680;28;20350;-46
2022/12/20 09:05:01;;;;;;;23.00;19.00;;;;;7.80;99222.00;;;;16701332;28;20225;-47
2022/12/20 09:13:03;;;;;;;22.20;18.00;;;;;7.90;99222.00;;;;16694299;28;20308;-48
2022/12/20 09:21:08;;;;;;;41.83;28.03;;;;;7.40;99210.00;;;;16694298;28;20292;-47
2022/12/20 09:29:11;;;;;;;23.80;19.10;;;;;7.80;99196.00;;;;16668153;28;20227;-46
2022/12/20 09:37:14;;;;;;;21.13;17.50;;;;;8.50;99194.00;;;;16685955;28;20225;-47
2022/12/20 09:45:24;;;;;;;22.27;19.30;;;;;8.80;99193.00;;;;16688145;28;20251;-47
2022/12/20 09:53:37;;;;;;;23.30;17.10;;;;;8.90;99177.00;;;;16709860;28;20916;-48
2022/12/20 10:01:40;;;;;;;18.00;16.10;;;;;9.00;99170.00;;;;16711970;28;20228;-48
2022/12/20 10:10:02;;;;;;;19.33;17.03;;;;;9.20;99160.00;;;;16708696;28;20237;-47
2022/12/20 10:18:20;;;;;;;19.20;17.07;;;;;8.80;99152.00;;;;16712392;28;20226;-47
2022/12/20 10:26:24;;;;;;;21.57;16.00;;;;;8.90;99142.00;;;;16710923;28;20663;-47
2022/12/20 10:34:26;;;;;;;22.27;17.77;;;;;9.00;99131.00;;;;16710819;28;20226;-47
2022/12/20 10:42:38;;;;;;;19.37;16.50;;;;;9.40;99113.00;;;;16711313;28;20591;-47
2022/12/20 10:50:41;;;;;;;17.50;15.60;;;;;9.20;99118.00;;;;16713022;28;20226;-46
2022/12/20 10:58:52;;;;;;;17.90;16.00;;;;;9.70;99106.00;;;;16710603;28;20252;-48
2022/12/20 11:06:55;;;;;;;19.53;15.27;;;;;10.10;99090.00;;;;16731552;28;20285;-47
2022/12/20 11:15:11;;;;;;;19.07;16.60;;;;;9.80;99087.00;;;;16712435;28;20261;-48
2022/12/20 11:23:19;;;;;;;17.80;15.63;;;;;9.40;99082.00;;;;16673540;28;20645;-47
2022/12/20 11:31:32;;;;;;;25.30;18.40;;;;;9.50;99067.00;;;;16681289;28;20214;-48
2022/12/20 11:39:40;;;;;;;19.67;17.47;;;;;9.70;99041.00;;;;16683861;28;20223;-47
2022/12/20 11:48:04;;;;;;;17.70;13.63;;;;;10.30;99047.00;;;;16679776;28;20206;-48
2022/12/20 11:56:11;;;;;;;15.90;14.30;;;;;10.50;99025.00;;;;16677659;28;20222;-48
2022/12/20 12:04:18;;;;;;;13.67;12.23;;;;;10.70;99008.00;;;;16659563;28;20238;-46
2022/12/20 12:12:25;;;;;;;15.10;12.83;;;;;10.80;99031.00;;;;16635399;28;20680;-47
2022/12/20 12:20:35;;;;;;;25.60;18.73;;;;;10.40;99003.00;;;;16630297;28;20242;-48
2022/12/20 12:28:38;;;;;;;18.43;16.47;;;;;10.80;99000.00;;;;16642211;28;20217;-48
2022/12/20 12:37:08;;;;;;;15.07;13.47;;;;;10.70;98981.00;;;;16645539;28;20304;-48
2022/12/20 12:45:16;;;;;;;15.97;13.60;;;;;10.80;98984.00;;;;16636990;28;20293;-47
2022/12/20 12:53:22;;;;;;;15.97;14.27;;;;;10.80;98981.00;;;;16644378;28;20244;-47
2022/12/20 13:01:49;;;;;;;15.80;12.90;;;;;10.80;98962.00;;;;16622873;28;20222;-47
2022/12/20 13:09:53;;;;;;;15.03;13.10;;;;;10.70;98952.00;;;;16597646;28;20232;-47
2022/12/20 13:17:58;;;;;;;16.00;14.30;;;;;10.60;98934.00;;;;16593908;28;20224;-47
2022/12/20 13:26:02;;;;;;;17.80;16.00;;;;;10.70;98931.00;;;;16581720;28;20219;-47
2022/12/20 13:34:37;;;;;;;25.77;22.17;;;;;10.00;98942.00;;;;16593699;28;20604;-47
2022/12/20 13:42:43;;;;;;;22.70;20.10;;;;;10.00;98941.00;;;;16605776;28;20220;-49
2022/12/20 13:50:51;;;;;;;25.43;19.70;;;;;10.30;98952.00;;;;16604717;28;20318;-49
2022/12/20 13:58:56;;;;;;;17.60;15.50;;;;;10.60;98924.00;;;;16580065;28;20314;-48
2022/12/20 14:07:00;;;;;;;15.80;14.30;;;;;10.90;98927.00;;;;16666561;28;20212;-49
2022/12/20 14:15:22;;;;;;;15.90;13.73;;;;;11.00;98903.00;;;;16731219;28;20229;-49
2022/12/20 14:23:27;;;;;;;17.40;14.37;;;;;11.30;98898.00;;;;16689288;28;20214;-48
2022/12/20 14:31:37;;;;;;;14.37;12.97;;;;;11.10;98886.00;;;;16699078;28;20734;-48
2022/12/20 14:39:53;;;;;;;13.67;11.50;;;;;10.90;98892.00;;;;16699703;28;20222;-49
2022/12/20 14:48:00;;;;;;;23.60;18.67;;;;;10.50;98881.00;;;;16702387;28;20253;-49
2022/12/20 14:56:03;;;;;;;23.27;18.70;;;;;10.20;98902.00;;;;16696277;28;20375;-49
2022/12/20 15:04:23;;;;;;;22.23;19.60;;;;;10.00;98877.00;;;;16733016;28;20227;-48
2022/12/20 15:12:26;;;;;;;20.30;16.07;;;;;10.30;98884.00;;;;16691846;28;20210;-49
2022/12/20 15:20:30;;;;;;;19.90;16.30;;;;;10.20;98868.00;;;;16674823;28;20219;-48
2022/12/20 15:28:32;;;;;;;22.47;17.07;;;;;10.10;98870.00;;;;16650435;28;20229;-48
2022/12/20 15:36:37;;;;;;;21.07;18.87;;;;;9.80;98871.00;;;;16656571;28;20231;-49
2022/12/20 15:44:39;;;;;;;24.20;20.27;;;;;9.60;98875.00;;;;16651334;28;20214;-48
2022/12/20 15:52:43;;;;;;;21.13;18.27;;;;;9.80;98879.00;;;;16631953;28;20218;-48
2022/12/20 16:00:46;;;;;;;29.27;22.20;;;;;10.00;98868.00;;;;16667036;28;20225;-49
2022/12/20 16:08:50;;;;;;;23.97;19.93;;;;;9.90;98859.00;;;;16671783;28;20226;-48
2022/12/20 16:16:52;;;;;;;20.13;18.13;;;;;8.80;98877.00;;;;16677438;28;20229;-49
2022/12/20 16:24:56;;;;;;;22.70;18.83;;;;;9.90;98874.00;;;;16705774;28;20222;-49
2022/12/20 16:32:58;;;;;;;22.10;18.60;;;;;10.10;98883.00;;;;16703177;28;20598;-49
2022/12/20 16:41:12;;;;;;;17.90;16.10;;;;;10.40;98880.00;;;;16700633;28;20222;-49
2022/12/20 16:49:16;;;;;;;17.93;15.80;;;;;10.40;98873.00;;;;16701240;28;20218;-49
2022/12/20 16:57:21;;;;;;;19.87;16.67;;;;;10.60;98872.00;;;;16694602;28;20609;-48
2022/12/20 17:05:29;;;;;;;20.77;16.97;;;;;10.50;98882.00;;;;16708010;28;20726;-49
2022/12/20 17:13:33;;;;;;;21.30;18.17;;;;;10.60;98873.00;;;;16711174;28;20725;-48
2022/12/20 17:21:37;;;;;;;20.63;16.47;;;;;10.90;98866.00;;;;16715728;28;20222;-48
2022/12/20 17:29:41;;;;;;;18.33;16.47;;;;;11.10;98857.00;;;;16712675;28;20245;-49
2022/12/20 17:37:44;;;;;;;24.67;21.93;;;;;10.50;98848.00;;;;16686327;28;20224;-49
2022/12/20 17:45:48;;;;;;;19.43;17.10;;;;;8.70;98864.00;;;;16687015;28;20221;-49
2022/12/20 17:53:51;;;;;;;21.60;16.30;;;;;8.60;98843.00;;;;16706173;28;20920;-48
2022/12/20 18:01:55;;;;;;;21.87;19.17;;;;;9.40;98828.00;;;;16722401;28;20350;-49
2022/12/20 18:09:58;;;;;;;16.93;15.23;;;;;10.50;98811.00;;;;16662214;28;20222;-50
2022/12/20 18:18:02;;;;;;;19.77;17.43;;;;;10.60;98801.00;;;;16648760;28;20708;-48
2022/12/20 18:26:06;;;;;;;23.13;19.13;;;;;10.30;98810.00;;;;16635444;28;20214;-48
2022/12/20 18:34:10;;;;;;;19.23;16.07;;;;;10.60;98822.00;;;;16653899;28;20218;-48
2022/12/20 18:42:13;;;;;;;23.73;20.23;;;;;10.10;98806.00;;;;16656869;28;20230;-49
2022/12/20 18:50:17;;;;;;;21.87;17.90;;;;;10.00;98817.00;;;;16647464;28;20588;-48
2022/12/20 18:58:20;;;;;;;23.27;19.83;;;;;10.00;98812.00;;;;16624812;28;20945;-49
2022/12/20 19:06:24;;;;;;;21.07;18.80;;;;;10.10;98800.00;;;;16696997;28;20216;-48
2022/12/20 19:14:27;;;;;;;23.33;19.30;;;;;11.00;98802.00;;;;16716056;28;20210;-49
2022/12/20 19:22:30;;;;;;;32.57;25.00;;;;;11.00;98794.00;;;;16695065;28;20233;-49
2022/12/20 19:30:33;;;;;;;26.43;23.20;;;;;10.00;98806.00;;;;16688023;28;20230;-49
2022/12/20 19:38:37;;;;;;;24.13;20.13;;;;;10.20;98798.00;;;;16694143;28;20698;-49
2022/12/20 19:46:40;;;;;;;24.93;19.47;;;;;10.30;98786.00;;;;16688626;28;20220;-49
2022/12/20 19:54:44;;;;;;;23.20;19.17;;;;;10.20;98778.00;;;;16705711;28;20226;-49
2022/12/20 20:02:46;;;;;;;27.50;23.57;;;;;10.00;98769.00;;;;16704000;28;20230;-50
2022/12/20 20:10:54;;;;;;;26.17;23.47;;;;;9.90;98764.00;;;;16649043;28;20230;-49
2022/12/20 20:18:57;;;;;;;27.87;23.40;;;;;9.50;98767.00;;;;16658474;28;20222;-49
2022/12/20 20:27:01;;;;;;;26.47;21.67;;;;;9.60;98781.00;;;;16650975;28;20206;-48
2022/12/20 20:35:04;;;;;;;24.37;21.87;;;;;9.40;98808.00;;;;16626931;28;20309;-51
2022/12/20 20:43:08;;;;;;;27.40;22.30;;;;;9.00;98836.00;;;;16614909;28;20213;-48
2022/12/20 20:51:11;;;;;;;27.63;24.53;;;;;9.10;98839.00;;;;16635948;28;20709;-49
2022/12/20 20:59:15;;;;;;;24.90;20.70;;;;;9.40;98840.00;;;;16660223;28;20229;-48
2022/12/20 21:07:18;;;;;;;28.83;25.37;;;;;9.30;98855.00;;;;16715219;28;20204;-48
2022/12/20 21:15:24;;;;;;;25.23;22.63;;;;;9.30;98850.00;;;;16733648;28;20224;-48
2022/12/20 21:23:27;;;;;;;22.60;20.20;;;;;9.50;98847.00;;;;16720717;28;20214;-48
2022/12/20 21:31:31;;;;;;;20.17;17.20;;;;;9.90;98842.00;;;;16732179;28;20225;-49
2022/12/20 21:39:34;;;;;;;21.50;19.30;;;;;9.80;98832.00;;;;16732300;28;20229;-48
2022/12/20 21:47:38;;;;;;;28.03;21.20;;;;;9.90;98828.00;;;;16706925;28;20198;-47
2022/12/20 21:55:41;;;;;;;19.40;17.40;;;;;10.20;98816.00;;;;16710988;28;20226;-49
2022/12/20 22:03:45;;;;;;;20.60;17.80;;;;;10.20;98800.00;;;;16661248;28;20249;-49
2022/12/20 22:11:48;;;;;;;20.70;18.53;;;;;10.10;98819.00;;;;16598775;28;20223;-47
2022/12/20 22:19:52;;;;;;;19.67;17.27;;;;;9.10;98831.00;;;;16604803;28;20238;-47
2022/12/20 22:27:54;;;;;;;24.83;18.00;;;;;9.80;98832.00;;;;16601903;28;20202;-48
2022/12/20 22:36:01;;;;;;;24.53;21.93;;;;;9.40;98840.00;;;;16604904;28;20309;-49
2022/12/20 22:44:04;;;;;;;23.50;20.60;;;;;9.90;98830.00;;;;16608818;28;20219;-48
2022/12/20 22:52:08;;;;;;;20.83;18.73;;;;;9.50;98834.00;;;;16629059;28;20642;-47
2022/12/20 23:00:12;;;;;;;18.17;16.37;;;;;8.60;98840.00;;;;16677349;28;20222;-48
2022/12/20 23:08:16;;;;;;;17.23;15.40;;;;;8.60;98838.00;;;;16712204;28;20204;-48
2022/12/20 23:16:19;;;;;;;17.40;15.70;;;;;8.70;98824.00;;;;16741075;28;20304;-47
2022/12/20 23:24:23;;;;;;;17.80;16.10;;;;;8.80;98808.00;;;;16733941;28;20217;-49
2022/12/20 23:32:26;;;;;;;15.63;14.03;;;;;8.60;98809.00;;;;16739550;28;20214;-46
2022/12/20 23:40:29;;;;;;;17.67;15.67;;;;;8.80;98800.00;;;;16730550;28;20230;-48
2022/12/20 23:48:32;;;;;;;16.20;14.43;;;;;8.80;98815.00;;;;16743395;28;20208;-48
2022/12/20 23:56:36;;;;;;;25.13;19.30;;;;;9.20;98800.00;;;;16733310;28;20304;-48
